Terminal Aerodrome Forecast
Issued by NWS Raleigh/Durham, NC

Home | Current Version | Previous Version | Text Only | Print | Product List | Glossary On
Versions: 1 2 3 4 5 6 7 8 9 10 11 12 13 14 15 16
000
FTUS42 KRAH 221120
TAFGSO
TAF
KGSO 221120Z 2212/2312 VRB03KT 3SM BR VCSH FEW003 OVC035
      TEMPO 2212/2215 2SM -RA BR SCT003 BKN015 OVC025
     FM221500 VRB03KT 5SM BR VCSH SCT005 SCT015 OVC050
      TEMPO 2215/2218 2SM -RA BR BKN015
     FM221800 VRB03KT P6SM SCT015 BKN080
     FM230000 00000KT 6SM BR SCT030 SCT090 OVC150=

USA.gov is the U.S. government's official web portal to all federal, state and local government web resources and services.